createdAt,value
2022-09-14T00:01:48.810Z,2.30
2022-09-14T00:04:18.637Z,2.65
2022-09-14T00:06:48.099Z,2.63
2022-09-14T00:09:18.699Z,2.75
2022-09-14T00:11:53.631Z,3.30
2022-09-14T00:14:23.402Z,3.05
2022-09-14T00:16:52.779Z,2.83
2022-09-14T00:19:22.908Z,3.17
2022-09-14T00:21:53.167Z,2.83
2022-09-14T00:24:22.008Z,3.30
2022-09-14T00:26:50.151Z,3.00
2022-09-14T00:29:19.225Z,3.35
2022-09-14T00:31:48.790Z,3.10
2022-09-14T00:34:19.867Z,2.78
2022-09-14T00:36:49.742Z,2.88
2022-09-14T00:39:19.540Z,2.72
2022-09-14T00:41:49.193Z,3.08
2022-09-14T00:44:59.782Z,2.60
2022-09-14T00:47:31.839Z,2.90
2022-09-14T00:50:02.855Z,2.90
2022-09-14T00:52:33.837Z,3.88
2022-09-14T00:55:12.147Z,3.20
2022-09-14T00:57:43.731Z,3.47
2022-09-14T01:00:14.968Z,3.17
2022-09-14T01:02:44.587Z,2.85
2022-09-14T01:05:13.437Z,3.30
2022-09-14T01:08:08.944Z,3.20
2022-09-14T01:10:47.778Z,3.70
2022-09-14T01:13:28.992Z,3.38
2022-09-14T01:16:04.428Z,3.28
2022-09-14T01:18:38.819Z,3.15
2022-09-14T01:21:11.190Z,3.75
2022-09-14T01:23:48.695Z,3.33
2022-09-14T01:26:39.522Z,3.67
2022-09-14T01:29:16.119Z,3.17
2022-09-14T01:31:51.351Z,3.10
2022-09-14T01:34:29.879Z,3.53
2022-09-14T01:37:01.955Z,3.47
2022-09-14T01:39:32.663Z,2.90
2022-09-14T01:42:02.174Z,3.55
2022-09-14T01:44:34.937Z,3.47
2022-09-14T01:47:08.123Z,3.65
2022-09-14T01:49:41.612Z,3.50
2022-09-14T01:52:13.047Z,3.55
2022-09-14T01:54:44.107Z,3.50
2022-09-14T01:57:20.948Z,3.53
2022-09-14T01:59:54.028Z,3.67
2022-09-14T02:02:28.712Z,3.15
2022-09-14T02:05:03.613Z,3.47
2022-09-14T02:07:34.239Z,3.63
2022-09-14T02:10:05.171Z,3.80
2022-09-14T02:12:33.366Z,3.20
2022-09-14T02:15:02.913Z,3.63
2022-09-14T02:17:33.082Z,3.40
2022-09-14T02:20:03.831Z,3.78
2022-09-14T02:22:32.672Z,3.25
2022-09-14T02:25:01.971Z,3.60
2022-09-14T02:27:29.987Z,3.55
2022-09-14T02:29:58.199Z,3.83
2022-09-14T02:32:33.300Z,3.38
2022-09-14T02:35:10.994Z,3.80
2022-09-14T02:37:49.437Z,3.70
2022-09-14T02:40:24.965Z,3.50
2022-09-14T02:43:01.151Z,3.22
2022-09-14T02:45:34.616Z,3.70
2022-09-14T02:48:11.748Z,3.33
2022-09-14T02:50:50.652Z,3.67
2022-09-14T02:53:22.749Z,3.20
2022-09-14T02:55:55.791Z,3.17
2022-09-14T02:58:25.851Z,3.40
2022-09-14T03:00:53.988Z,2.90
2022-09-14T03:03:23.471Z,2.90
2022-09-14T03:05:51.498Z,3.20
2022-09-14T03:08:19.640Z,3.58
2022-09-14T03:10:48.747Z,3.22
2022-09-14T03:13:16.769Z,3.03
2022-09-14T03:15:45.045Z,3.10
2022-09-14T03:18:14.720Z,3.45
2022-09-14T03:20:44.899Z,3.45
2022-09-14T03:23:13.743Z,2.90
2022-09-14T03:25:43.260Z,3.17
2022-09-14T03:28:12.690Z,3.10
2022-09-14T03:30:46.603Z,3.13
2022-09-14T03:33:15.777Z,2.80
2022-09-14T03:35:45.143Z,2.88
2022-09-14T03:38:14.215Z,2.58
2022-09-14T03:40:42.224Z,2.70
2022-09-14T03:43:12.302Z,2.17
2022-09-14T03:45:42.347Z,2.80
2022-09-14T03:48:11.505Z,2.75
2022-09-14T03:50:39.583Z,2.20
2022-09-14T03:53:09.695Z,2.10
2022-09-14T03:55:37.743Z,2.40
2022-09-14T03:58:05.837Z,2.50
2022-09-14T04:00:37.287Z,2.47
2022-09-14T04:03:14.329Z,2.13
2022-09-14T04:05:42.460Z,2.30
2022-09-14T04:08:12.267Z,2.38
2022-09-14T04:10:40.833Z,2.13
2022-09-14T04:13:08.882Z,2.55
2022-09-14T04:15:36.911Z,2.17
2022-09-14T04:18:06.154Z,2.50
2022-09-14T04:20:35.080Z,1.90
2022-09-14T04:23:06.080Z,2.30
2022-09-14T04:25:35.520Z,2.47
2022-09-14T04:28:22.376Z,2.50
2022-09-14T04:31:00.606Z,2.22
2022-09-14T04:33:31.752Z,2.38
2022-09-14T04:36:02.346Z,1.98
2022-09-14T04:38:31.667Z,2.08
2022-09-14T04:41:08.468Z,1.95
2022-09-14T04:43:39.301Z,2.25
2022-09-14T04:46:11.437Z,1.90
2022-09-14T04:48:40.918Z,2.13
2022-09-14T04:51:16.682Z,2.00
2022-09-14T04:53:45.931Z,2.10
2022-09-14T04:56:16.169Z,2.58
2022-09-14T04:58:50.685Z,2.10
2022-09-14T05:01:30.443Z,1.90
2022-09-14T05:03:58.920Z,2.08
2022-09-14T05:06:29.399Z,2.40
2022-09-14T05:08:59.938Z,2.35
2022-09-14T05:11:32.361Z,2.28
2022-09-14T05:14:01.618Z,2.00
2022-09-14T05:16:31.531Z,2.20
2022-09-14T05:19:03.387Z,2.65
2022-09-14T05:21:33.885Z,2.10
2022-09-14T05:24:03.807Z,2.92
2022-09-14T05:26:33.603Z,2.30
2022-09-14T05:29:03.005Z,2.20
2022-09-14T05:31:33.658Z,2.83
2022-09-14T05:34:01.698Z,2.53
2022-09-14T05:36:29.858Z,2.15
2022-09-14T05:39:07.095Z,2.40
2022-09-14T05:41:37.455Z,2.13
2022-09-14T05:44:06.250Z,2.40
2022-09-14T05:46:34.530Z,2.20
2022-09-14T05:49:04.223Z,2.67
2022-09-14T05:51:32.227Z,2.20
2022-09-14T05:54:00.916Z,2.58
2022-09-14T05:56:31.735Z,2.45
2022-09-14T05:59:08.506Z,2.15
2022-09-14T06:01:36.594Z,2.20
2022-09-14T06:04:04.777Z,2.30
2022-09-14T06:06:34.153Z,2.10
2022-09-14T06:09:03.584Z,2.25
2022-09-14T06:11:33.728Z,2.40
2022-09-14T06:14:02.050Z,2.80
2022-09-14T06:16:31.794Z,2.13
2022-09-14T06:19:00.892Z,1.73
2022-09-14T06:21:31.930Z,2.00
2022-09-14T06:24:00.093Z,1.90
2022-09-14T06:26:28.334Z,2.30
2022-09-14T06:28:56.446Z,1.98
2022-09-14T06:31:25.723Z,2.03
2022-09-14T06:33:55.142Z,2.00
2022-09-14T06:36:25.496Z,1.83
2022-09-14T06:38:54.366Z,2.00
2022-09-14T06:41:24.121Z,2.10
2022-09-14T06:43:52.432Z,2.13
2022-09-14T06:46:22.340Z,1.90
2022-09-14T06:48:52.819Z,2.10
2022-09-14T06:51:24.566Z,1.98
2022-09-14T06:53:53.875Z,2.05
2022-09-14T06:56:22.466Z,2.08
2022-09-14T06:58:52.165Z,2.15
2022-09-14T07:01:24.107Z,2.15
2022-09-14T07:03:52.853Z,2.05
2022-09-14T07:06:23.991Z,2.22
2022-09-14T07:08:53.011Z,1.92
2022-09-14T07:11:25.935Z,1.80
2022-09-14T07:13:57.174Z,2.53
2022-09-14T07:16:25.434Z,1.80
2022-09-14T07:18:54.531Z,2.03
2022-09-14T07:21:27.315Z,2.00
2022-09-14T07:23:55.685Z,2.08
2022-09-14T07:26:25.496Z,1.98
2022-09-14T07:28:56.124Z,1.90
2022-09-14T07:31:26.086Z,2.00
2022-09-14T07:33:55.779Z,1.67
2022-09-14T07:36:25.189Z,1.85
2022-09-14T07:38:55.360Z,1.92
2022-09-14T07:41:25.094Z,1.95
2022-09-14T07:43:56.646Z,1.83
2022-09-14T07:46:25.395Z,2.13
2022-09-14T07:48:56.926Z,2.47
2022-09-14T07:51:25.844Z,2.10
2022-09-14T07:53:55.942Z,2.20
2022-09-14T07:56:25.680Z,1.90
2022-09-14T07:59:07.072Z,2.03
2022-09-14T08:01:45.387Z,2.03
2022-09-14T08:04:13.551Z,1.98
2022-09-14T08:06:42.185Z,1.80
2022-09-14T08:09:11.650Z,2.85
2022-09-14T08:11:39.749Z,2.92
2022-09-14T08:14:10.330Z,2.40
2022-09-14T08:16:40.490Z,1.80
2022-09-14T08:19:12.719Z,2.28
2022-09-14T08:21:49.500Z,2.08
2022-09-14T08:24:20.853Z,2.13
2022-09-14T08:26:49.769Z,1.90
2022-09-14T08:29:19.670Z,2.65
2022-09-14T08:31:48.760Z,1.48
2022-09-14T08:34:19.358Z,1.90
2022-09-14T08:36:48.191Z,2.28
2022-09-14T08:39:18.838Z,2.17
2022-09-14T08:41:52.800Z,2.40
2022-09-14T08:44:25.808Z,3.10
2022-09-14T08:46:59.630Z,3.40
2022-09-14T08:49:40.352Z,3.05
2022-09-14T08:52:19.870Z,3.63
2022-09-14T08:54:55.410Z,3.15
2022-09-14T08:57:29.662Z,3.10
2022-09-14T09:00:06.646Z,2.83
2022-09-14T09:03:02.921Z,2.30
2022-09-14T09:05:37.728Z,2.72
2022-09-14T09:08:14.607Z,2.90
2022-09-14T09:10:44.266Z,2.67
2022-09-14T09:13:16.369Z,2.30
2022-09-14T09:15:48.878Z,2.00
2022-09-14T09:18:21.618Z,1.25
2022-09-14T09:20:52.984Z,2.00
2022-09-14T09:23:22.889Z,1.80
2022-09-14T09:26:00.016Z,2.28
2022-09-14T09:28:29.781Z,1.88
2022-09-14T09:31:04.742Z,2.33
2022-09-14T09:33:33.043Z,2.17
2022-09-14T09:36:01.695Z,2.33
2022-09-14T09:38:36.998Z,2.20
2022-09-14T09:41:13.860Z,2.15
2022-09-14T09:44:00.007Z,1.70
2022-09-14T09:46:29.631Z,2.50
2022-09-14T09:48:58.225Z,2.50
2022-09-14T09:51:31.511Z,2.40
2022-09-14T09:54:10.184Z,2.20
2022-09-14T09:56:42.139Z,2.30
2022-09-14T09:59:35.240Z,1.90
2022-09-14T10:02:24.300Z,2.15
2022-09-14T10:05:03.983Z,2.33
2022-09-14T10:07:34.559Z,2.20
2022-09-14T10:10:05.284Z,2.10
2022-09-14T10:12:36.066Z,2.35
2022-09-14T10:15:16.607Z,2.05
2022-09-14T10:18:18.475Z,1.95
2022-09-14T10:21:06.968Z,1.98
2022-09-14T10:23:37.513Z,2.10
2022-09-14T10:26:26.831Z,2.28
2022-09-14T10:29:16.255Z,2.33
2022-09-14T10:31:51.045Z,2.00
2022-09-14T10:34:21.322Z,2.25
2022-09-14T10:36:54.196Z,2.25
2022-09-14T10:39:29.871Z,2.00
2022-09-14T10:42:14.275Z,2.15
2022-09-14T10:44:53.585Z,2.10
2022-09-14T10:47:33.729Z,2.13
2022-09-14T10:50:13.890Z,2.03
2022-09-14T10:52:51.509Z,1.98
2022-09-14T10:55:34.392Z,1.67
2022-09-14T10:58:24.632Z,1.67
2022-09-14T11:01:03.494Z,2.00
2022-09-14T11:03:51.875Z,1.58
2022-09-14T11:06:32.302Z,1.50
2022-09-14T11:09:03.868Z,1.80
2022-09-14T11:11:42.650Z,1.60
2022-09-14T11:14:26.034Z,1.70
2022-09-14T11:17:06.640Z,1.77
2022-09-14T11:19:45.246Z,2.00
2022-09-14T11:22:22.777Z,1.90
2022-09-14T11:25:04.598Z,1.70
2022-09-14T11:27:40.786Z,1.80
2022-09-14T11:30:16.481Z,1.88
2022-09-14T11:32:54.706Z,1.80
2022-09-14T11:35:30.665Z,1.60
2022-09-14T11:38:02.482Z,1.52
2022-09-14T11:40:35.619Z,1.63
2022-09-14T11:43:29.093Z,2.25
2022-09-14T11:46:07.107Z,1.67
2022-09-14T11:48:43.233Z,1.83
2022-09-14T11:51:15.756Z,1.70
2022-09-14T11:53:47.388Z,1.80
2022-09-14T11:56:26.529Z,1.95
2022-09-14T11:58:56.612Z,1.63
2022-09-14T12:01:31.199Z,2.10
2022-09-14T12:04:12.745Z,1.90
2022-09-14T12:06:55.687Z,1.83
2022-09-14T12:09:43.358Z,1.83
2022-09-14T12:12:34.845Z,2.05
2022-09-14T12:15:05.334Z,2.33
2022-09-14T12:17:40.270Z,1.92
2022-09-14T12:20:43.396Z,1.90
2022-09-14T12:23:23.239Z,1.63
2022-09-14T12:26:03.760Z,1.70
2022-09-14T12:28:48.942Z,1.85
2022-09-14T12:31:55.645Z,1.90
2022-09-14T12:34:28.003Z,2.20
2022-09-14T12:37:08.639Z,2.10
2022-09-14T12:39:39.517Z,2.00
2022-09-14T12:42:27.316Z,1.77
2022-09-14T12:44:56.430Z,1.90
2022-09-14T12:47:57.806Z,1.90
2022-09-14T12:50:32.143Z,1.70
2022-09-14T12:53:21.843Z,1.83
2022-09-14T12:56:05.441Z,1.58
2022-09-14T12:58:59.853Z,1.88
2022-09-14T13:01:36.987Z,1.67
2022-09-14T13:04:06.251Z,2.08
2022-09-14T13:06:41.855Z,3.17
2022-09-14T13:09:20.183Z,1.65
2022-09-14T13:11:53.860Z,2.08
2022-09-14T13:14:25.567Z,1.50
2022-09-14T13:17:17.522Z,1.77
2022-09-14T13:19:57.608Z,2.00
2022-09-14T13:22:35.115Z,2.15
2022-09-14T13:25:04.831Z,1.50
2022-09-14T13:27:34.954Z,1.80
2022-09-14T13:30:05.688Z,2.00
2022-09-14T13:32:37.084Z,1.80
2022-09-14T13:35:07.344Z,1.63
2022-09-14T13:37:39.140Z,2.00
2022-09-14T13:40:10.263Z,1.60
2022-09-14T13:42:38.404Z,1.95
2022-09-14T13:45:07.868Z,1.42
2022-09-14T13:47:36.094Z,1.85
2022-09-14T13:50:04.397Z,1.40
2022-09-14T13:53:02.065Z,1.92
2022-09-14T13:55:29.753Z,1.50
2022-09-14T13:58:16.851Z,1.50
2022-09-14T14:01:00.123Z,1.88
2022-09-14T14:03:32.676Z,1.90
2022-09-14T14:06:04.370Z,1.60
2022-09-14T14:08:44.049Z,1.63
2022-09-14T14:11:17.956Z,1.77
2022-09-14T14:13:46.040Z,1.60
2022-09-14T14:16:16.544Z,1.48
2022-09-14T14:18:52.355Z,1.52
2022-09-14T14:21:30.365Z,1.88
2022-09-14T14:24:49.792Z,1.50
2022-09-14T14:27:32.896Z,1.50
2022-09-14T14:30:02.531Z,1.88
2022-09-14T14:32:31.032Z,1.67
2022-09-14T14:35:05.599Z,1.67
2022-09-14T14:37:33.827Z,1.27
2022-09-14T14:40:02.071Z,2.05
2022-09-14T14:42:33.801Z,1.58
2022-09-14T14:45:03.606Z,1.60
2022-09-14T14:47:33.473Z,1.33
2022-09-14T14:50:03.802Z,1.58
2022-09-14T14:52:32.066Z,1.38
2022-09-14T14:55:01.330Z,1.40
2022-09-14T14:57:29.619Z,1.67
2022-09-14T14:59:59.000Z,1.60
2022-09-14T15:02:27.182Z,1.00
2022-09-14T15:04:55.264Z,1.42
2022-09-14T15:07:24.991Z,2.08
2022-09-14T15:10:03.317Z,1.30
2022-09-14T15:12:32.816Z,1.17
2022-09-14T15:15:12.928Z,1.42
2022-09-14T15:17:41.034Z,1.35
2022-09-14T15:20:10.362Z,1.58
2022-09-14T15:22:39.245Z,1.20
2022-09-14T15:25:08.306Z,1.13
2022-09-14T15:27:45.512Z,1.33
2022-09-14T15:30:17.375Z,1.65
2022-09-14T15:32:45.820Z,1.67
2022-09-14T15:35:16.337Z,1.30
2022-09-14T15:37:47.475Z,1.52
2022-09-14T15:40:15.684Z,1.40
2022-09-14T15:42:45.077Z,1.30
2022-09-14T15:45:13.839Z,1.55
2022-09-14T15:47:47.044Z,1.60
2022-09-14T15:50:19.498Z,1.35
2022-09-14T15:52:47.576Z,1.88
2022-09-14T15:55:20.693Z,1.70
2022-09-14T15:57:49.045Z,1.42
2022-09-14T16:00:23.197Z,1.90
2022-09-14T16:02:53.930Z,1.35
2022-09-14T16:05:22.364Z,1.60
2022-09-14T16:07:54.582Z,1.60
2022-09-14T16:10:24.399Z,1.20
2022-09-14T16:12:57.576Z,1.20
2022-09-14T16:15:25.832Z,1.25
2022-09-14T16:17:55.890Z,1.33
2022-09-14T16:20:24.205Z,1.60
2022-09-14T16:22:52.776Z,1.10
2022-09-14T16:25:20.819Z,1.48
2022-09-14T16:27:51.118Z,1.40
2022-09-14T16:30:19.306Z,1.40
2022-09-14T16:32:49.409Z,1.55
2022-09-14T16:35:18.962Z,1.50
2022-09-14T16:37:47.079Z,1.70
2022-09-14T16:40:15.546Z,1.48
2022-09-14T16:42:47.034Z,1.20
2022-09-14T16:45:25.373Z,1.67
2022-09-14T16:48:01.794Z,1.42
2022-09-14T16:50:31.204Z,1.60
2022-09-14T16:52:59.196Z,1.75
2022-09-14T16:55:35.479Z,1.80
2022-09-14T16:58:03.489Z,1.60
2022-09-14T17:00:31.864Z,1.63
2022-09-14T17:03:00.024Z,1.73
2022-09-14T17:05:28.137Z,2.15
2022-09-14T17:07:57.777Z,1.75
2022-09-14T17:10:35.686Z,1.88
2022-09-14T17:13:11.163Z,1.63
2022-09-14T17:15:39.646Z,2.25
2022-09-14T17:18:08.131Z,1.52
2022-09-14T17:20:39.075Z,1.90
2022-09-14T17:23:11.735Z,1.67
2022-09-14T17:25:39.794Z,1.67
2022-09-14T17:28:09.911Z,2.08
2022-09-14T17:30:37.946Z,2.03
2022-09-14T17:33:06.222Z,2.10
2022-09-14T17:35:34.553Z,2.63
2022-09-14T17:38:04.804Z,1.40
2022-09-14T17:40:34.433Z,2.10
2022-09-14T17:43:04.613Z,1.90
2022-09-14T17:45:32.751Z,2.10
2022-09-14T17:48:01.190Z,1.88
2022-09-14T17:50:32.510Z,2.05
2022-09-14T17:53:01.739Z,1.95
2022-09-14T17:55:30.384Z,2.15
2022-09-14T17:57:59.977Z,2.00
2022-09-14T18:00:34.257Z,2.08
2022-09-14T18:03:02.944Z,2.00
2022-09-14T18:05:31.754Z,2.20
2022-09-14T18:08:00.382Z,2.72
2022-09-14T18:10:37.128Z,2.40
2022-09-14T18:13:11.667Z,2.95
2022-09-14T18:15:58.404Z,1.85
2022-09-14T18:18:34.768Z,1.92
2022-09-14T18:21:06.174Z,1.98
2022-09-14T18:23:35.353Z,2.00
2022-09-14T18:26:04.528Z,1.85
2022-09-14T18:28:34.824Z,2.45
2022-09-14T18:31:07.263Z,2.65
2022-09-14T18:33:39.722Z,2.30
2022-09-14T18:36:09.248Z,1.80
2022-09-14T18:38:39.421Z,2.00
2022-09-14T18:41:16.440Z,1.85
2022-09-14T18:43:48.429Z,2.17
2022-09-14T18:46:25.705Z,2.13
2022-09-14T18:48:59.640Z,2.10
2022-09-14T18:51:30.294Z,1.95
2022-09-14T18:53:59.058Z,2.28
2022-09-14T18:56:38.347Z,2.28
2022-09-14T18:59:16.160Z,2.50
2022-09-14T19:01:45.673Z,1.63
2022-09-14T19:04:15.486Z,1.80
2022-09-14T19:06:44.693Z,1.80
2022-09-14T19:09:14.998Z,2.92
2022-09-14T19:11:46.600Z,2.35
2022-09-14T19:14:20.627Z,2.65
2022-09-14T19:16:50.321Z,2.53
2022-09-14T19:19:26.277Z,2.50
2022-09-14T19:21:54.815Z,2.08
2022-09-14T19:24:27.468Z,2.40
2022-09-14T19:26:55.541Z,2.55
2022-09-14T19:29:26.171Z,2.08
2022-09-14T19:31:55.860Z,2.08
2022-09-14T19:34:27.566Z,2.75
2022-09-14T19:37:03.778Z,2.40
2022-09-14T19:39:31.790Z,2.63
2022-09-14T19:42:00.863Z,2.83
2022-09-14T19:44:34.169Z,2.60
2022-09-14T19:47:02.173Z,2.50
2022-09-14T19:49:35.285Z,2.28
2022-09-14T19:52:05.413Z,2.72
2022-09-14T19:54:42.702Z,2.75
2022-09-14T19:57:13.034Z,2.28
2022-09-14T19:59:44.889Z,2.00
2022-09-14T20:02:13.959Z,2.25
2022-09-14T20:04:55.594Z,2.60
2022-09-14T20:07:25.295Z,2.15
2022-09-14T20:09:53.848Z,2.28
2022-09-14T20:12:25.257Z,2.50
2022-09-14T20:14:56.131Z,2.45
2022-09-14T20:17:25.348Z,2.45
2022-09-14T20:20:00.305Z,2.50
2022-09-14T20:22:31.727Z,2.60
2022-09-14T20:25:09.194Z,2.10
2022-09-14T20:27:38.443Z,1.90
2022-09-14T20:30:10.601Z,1.88
2022-09-14T20:32:45.731Z,2.63
2022-09-14T20:35:14.369Z,2.03
2022-09-14T20:37:43.672Z,1.90
2022-09-14T20:40:12.351Z,2.17
2022-09-14T20:42:40.483Z,1.75
2022-09-14T20:45:12.633Z,1.70
2022-09-14T20:47:44.162Z,2.10
2022-09-14T20:50:12.320Z,1.83
2022-09-14T20:52:40.465Z,2.20
2022-09-14T20:55:11.321Z,1.63
2022-09-14T20:57:39.889Z,2.20
2022-09-14T21:00:12.116Z,1.83
2022-09-14T21:02:40.515Z,2.10
2022-09-14T21:05:09.583Z,1.88
2022-09-14T21:07:38.746Z,1.77
2022-09-14T21:10:08.115Z,1.50
2022-09-14T21:12:37.650Z,1.42
2022-09-14T21:15:06.661Z,1.80
2022-09-14T21:17:36.710Z,1.60
2022-09-14T21:20:07.760Z,1.63
2022-09-14T21:22:35.895Z,1.80
2022-09-14T21:25:11.382Z,1.73
2022-09-14T21:27:39.970Z,1.80
2022-09-14T21:30:09.759Z,1.85
2022-09-14T21:32:40.432Z,1.42
2022-09-14T21:35:09.969Z,1.40
2022-09-14T21:37:38.017Z,1.80
2022-09-14T21:40:07.918Z,1.40
2022-09-14T21:42:35.987Z,1.80
2022-09-14T21:45:05.405Z,1.95
2022-09-14T21:47:33.478Z,1.75
2022-09-14T21:50:04.372Z,1.40
2022-09-14T21:52:32.455Z,1.80
2022-09-14T21:55:07.194Z,1.30
2022-09-14T21:57:39.190Z,1.55
2022-09-14T22:00:11.155Z,1.65
2022-09-14T22:02:40.717Z,1.70
2022-09-14T22:05:12.719Z,1.80
2022-09-14T22:07:42.924Z,1.65
2022-09-14T22:10:13.069Z,1.50
2022-09-14T22:12:42.419Z,2.42
2022-09-14T22:15:17.547Z,1.98
2022-09-14T22:17:48.698Z,1.80
2022-09-14T22:20:23.212Z,1.70
2022-09-14T22:22:51.637Z,1.40
2022-09-14T22:25:21.282Z,2.47
2022-09-14T22:27:49.279Z,1.50
2022-09-14T22:30:19.175Z,1.50
2022-09-14T22:32:53.175Z,1.80
2022-09-14T22:35:24.928Z,1.50
2022-09-14T22:37:56.280Z,1.60
2022-09-14T22:40:24.521Z,1.92
2022-09-14T22:42:52.887Z,1.88
2022-09-14T22:45:21.124Z,1.80
2022-09-14T22:47:50.736Z,2.03
2022-09-14T22:50:18.999Z,1.48
2022-09-14T22:52:48.513Z,1.80
2022-09-14T22:55:19.691Z,1.40
2022-09-14T22:57:53.548Z,1.60
2022-09-14T23:00:29.814Z,1.52
2022-09-14T23:02:58.183Z,2.88
2022-09-14T23:05:27.308Z,1.60
2022-09-14T23:07:57.239Z,1.67
2022-09-14T23:10:32.505Z,1.80
2022-09-14T23:13:00.854Z,1.25
2022-09-14T23:15:28.916Z,1.50
2022-09-14T23:17:56.939Z,1.52
2022-09-14T23:20:25.452Z,1.52
2022-09-14T23:22:56.084Z,1.88
2022-09-14T23:25:32.483Z,1.60
2022-09-14T23:28:00.515Z,1.75
2022-09-14T23:30:37.014Z,1.38
2022-09-14T23:33:05.348Z,1.70
2022-09-14T23:35:37.727Z,1.52
2022-09-14T23:38:09.488Z,1.50
2022-09-14T23:40:37.499Z,1.45
2022-09-14T23:43:05.806Z,1.85
2022-09-14T23:45:36.143Z,1.50
2022-09-14T23:48:04.920Z,1.50
2022-09-14T23:50:33.126Z,1.50
2022-09-14T23:53:05.481Z,1.67
2022-09-14T23:55:42.950Z,1.60
2022-09-14T23:58:11.020Z,1.40
